Time;durP1;ratioP1;P1;durP2;ratioP2;P2;SDS_P1;SDS_P2;PMS_P1;PMS_P2;Temp;Humidity;BMP_temperature;BMP_pressure;BME280_temperature;BME280_humidity;BME280_pressure;Samples;Min_cycle;Max_cycle;Signal;HPM_P1;HPM_P2
2021/10/09 00:02:46;;;;;;;3.10;2.45;;;14.90;99.90;;;;;;5054151;28;20039;-72
2021/10/09 00:05:50;;;;;;;5.25;2.20;;;14.90;99.90;;;;;;5052203;28;20387;-72
2021/10/09 00:08:54;;;;;;;6.90;3.13;;;15.00;99.90;;;;;;5050225;28;20048;-70
2021/10/09 00:11:58;;;;;;;7.18;2.67;;;14.90;99.90;;;;;;5034005;28;20369;-70
2021/10/09 00:15:04;;;;;;;7.10;3.22;;;15.00;99.90;;;;;;5049180;28;20495;-70
2021/10/09 00:18:08;;;;;;;8.45;3.58;;;14.90;99.90;;;;;;5049090;28;20040;-71
2021/10/09 00:21:12;;;;;;;7.00;2.72;;;15.00;99.90;;;;;;5033884;28;20048;-72
2021/10/09 00:24:18;;;;;;;7.68;2.50;;;15.00;99.90;;;;;;5046043;28;20494;-72
2021/10/09 00:27:22;;;;;;;5.85;2.83;;;15.00;99.90;;;;;;5046885;28;20516;-71
2021/10/09 00:30:27;;;;;;;8.15;2.90;;;15.10;99.90;;;;;;5034337;28;20113;-72
2021/10/09 00:33:30;;;;;;;8.35;3.38;;;15.00;99.90;;;;;;5036676;28;20052;-70
2021/10/09 00:36:35;;;;;;;6.15;3.30;;;14.90;99.90;;;;;;5037262;28;20037;-70
2021/10/09 00:39:39;;;;;;;6.13;2.60;;;14.80;99.90;;;;;;5033461;28;20040;-72
2021/10/09 00:42:45;;;;;;;11.63;3.22;;;14.80;99.90;;;;;;5033312;28;20046;-70
2021/10/09 00:45:55;;;;;;;7.35;2.70;;;14.70;99.90;;;;;;5038195;28;20044;-70
2021/10/09 00:48:59;;;;;;;9.85;3.50;;;14.40;99.90;;;;;;5052738;28;20048;-73
2021/10/09 00:52:05;;;;;;;6.90;2.90;;;14.40;99.90;;;;;;5032649;28;20044;-70
2021/10/09 00:55:10;;;;;;;9.73;3.05;;;14.40;99.90;;;;;;5046439;28;20044;-70
2021/10/09 00:58:14;;;;;;;5.75;2.85;;;14.30;99.90;;;;;;5050882;28;20044;-72
2021/10/09 01:01:19;;;;;;;7.22;3.10;;;14.30;99.90;;;;;;5052205;28;20045;-70
2021/10/09 01:04:24;;;;;;;4.47;3.03;;;14.30;99.90;;;;;;5046873;28;20052;-72
2021/10/09 01:07:28;;;;;;;6.03;2.85;;;14.40;99.90;;;;;;5046467;28;20494;-72
2021/10/09 01:10:33;;;;;;;4.45;3.05;;;14.30;99.90;;;;;;5032163;28;20052;-72
2021/10/09 01:13:37;;;;;;;8.10;3.05;;;14.30;99.90;;;;;;5037038;28;20055;-70
2021/10/09 01:16:42;;;;;;;6.72;3.22;;;14.20;99.90;;;;;;5036412;28;20044;-70
2021/10/09 01:19:47;;;;;;;6.35;3.25;;;14.20;99.90;;;;;;5032025;28;20040;-70
2021/10/09 01:22:53;;;;;;;8.90;3.45;;;14.20;99.90;;;;;;5048060;28;20043;-70
2021/10/09 01:25:59;;;;;;;9.60;3.70;;;14.30;99.90;;;;;;5051461;28;20044;-72
2021/10/09 01:29:05;;;;;;;6.25;4.10;;;14.50;99.90;;;;;;5051177;28;20040;-71
2021/10/09 01:32:09;;;;;;;9.30;3.90;;;14.60;99.90;;;;;;5032247;28;20064;-71
2021/10/09 01:35:13;;;;;;;12.00;4.50;;;14.60;99.90;;;;;;5023249;28;20428;-70
2021/10/09 01:38:19;;;;;;;5.45;3.63;;;14.60;99.90;;;;;;5031162;28;20663;-72
2021/10/09 01:41:23;;;;;;;8.90;3.63;;;14.70;99.90;;;;;;5031789;28;20029;-72
2021/10/09 01:44:27;;;;;;;8.93;2.83;;;14.70;99.90;;;;;;5036479;28;20061;-70
2021/10/09 01:47:39;;;;;;;8.88;3.30;;;14.60;99.90;;;;;;5031593;28;20056;-72
2021/10/09 01:50:45;;;;;;;9.38;4.35;;;14.50;99.90;;;;;;5043366;28;20044;-71
2021/10/09 01:53:50;;;;;;;4.90;3.25;;;14.40;99.90;;;;;;5035810;28;20044;-71
2021/10/09 01:56:54;;;;;;;8.48;3.78;;;14.40;99.90;;;;;;5036208;28;20032;-72
2021/10/09 01:59:59;;;;;;;8.13;3.55;;;14.30;99.90;;;;;;5050672;28;20056;-72
2021/10/09 02:03:22;;;;;;;6.90;4.10;;;14.20;99.90;;;;;;5052117;28;20040;-71
2021/10/09 02:06:27;;;;;;;5.95;3.63;;;14.10;99.90;;;;;;5039354;28;20048;-72
2021/10/09 02:09:32;;;;;;;6.80;4.53;;;14.10;99.90;;;;;;5031707;28;20048;-71
2021/10/09 02:12:39;;;;;;;10.77;4.65;;;14.00;99.90;;;;;;5031180;28;20482;-72
2021/10/09 02:16:11;;;;;;;11.23;3.53;;;14.00;99.90;;;;;;5030033;28;20056;-73
2021/10/09 02:26:04;;;;;;;10.82;4.47;;;13.90;99.90;;;;;;5050453;28;20044;-71
2021/10/09 02:29:09;;;;;;;8.50;3.83;;;13.90;99.90;;;;;;5045460;28;20044;-72
2021/10/09 02:32:13;;;;;;;7.47;3.70;;;13.90;99.90;;;;;;5051307;28;20033;-72
2021/10/09 02:35:18;;;;;;;7.30;3.67;;;13.90;99.90;;;;;;5031486;28;20566;-72
2021/10/09 02:38:22;;;;;;;11.35;4.38;;;14.00;99.90;;;;;;5029317;28;20048;-71
2021/10/09 02:41:29;;;;;;;5.90;4.07;;;13.90;99.90;;;;;;5030573;28;20515;-72
2021/10/09 02:44:34;;;;;;;8.45;4.35;;;13.80;99.90;;;;;;5030664;28;20045;-72
2021/10/09 02:47:38;;;;;;;7.72;3.83;;;13.80;99.90;;;;;;5030456;28;20044;-70
2021/10/09 02:50:45;;;;;;;10.65;4.32;;;13.90;99.90;;;;;;5031918;28;20048;-72
2021/10/09 02:53:51;;;;;;;12.40;4.18;;;13.90;99.90;;;;;;5050717;28;20051;-70
2021/10/09 02:56:55;;;;;;;8.25;3.95;;;13.90;99.90;;;;;;5030426;28;20044;-70
2021/10/09 02:59:59;;;;;;;11.63;3.97;;;13.90;99.90;;;;;;5034531;28;20383;-70
2021/10/09 03:03:03;;;;;;;9.60;4.40;;;13.90;99.90;;;;;;5050235;28;20052;-72
2021/10/09 03:06:08;;;;;;;10.10;4.00;;;13.80;99.90;;;;;;5029469;28;20051;-71
2021/10/09 03:09:13;;;;;;;9.32;3.83;;;13.90;99.90;;;;;;5033406;28;20048;-73
2021/10/09 03:12:18;;;;;;;8.10;3.40;;;13.80;99.90;;;;;;5030326;28;20056;-70
2021/10/09 03:15:23;;;;;;;12.60;3.78;;;13.80;99.90;;;;;;5049752;28;20048;-70
2021/10/09 03:18:28;;;;;;;11.10;4.38;;;13.80;99.90;;;;;;5044499;28;20052;-71
2021/10/09 03:21:32;;;;;;;10.88;3.92;;;13.90;99.90;;;;;;5050182;28;20062;-72
2021/10/09 03:24:37;;;;;;;8.07;3.65;;;13.80;99.90;;;;;;5050359;28;20051;-72
2021/10/09 03:27:42;;;;;;;8.48;3.35;;;13.80;99.90;;;;;;5036990;28;20052;-72
2021/10/09 03:30:49;;;;;;;14.20;3.60;;;13.80;99.90;;;;;;5030471;28;20045;-71
2021/10/09 03:33:53;;;;;;;7.60;3.67;;;13.80;99.90;;;;;;5050471;28;20056;-70
2021/10/09 03:37:00;;;;;;;14.32;4.43;;;13.70;99.90;;;;;;5048256;28;20036;-71
2021/10/09 03:40:10;;;;;;;11.40;3.97;;;13.70;99.90;;;;;;5043839;28;20056;-72
2021/10/09 03:43:18;;;;;;;7.68;3.85;;;13.70;99.90;;;;;;5050147;28;20040;-72
2021/10/09 03:46:26;;;;;;;7.03;3.30;;;13.70;99.90;;;;;;5046302;28;20059;-71
2021/10/09 03:49:48;;;;;;;9.95;3.53;;;13.70;99.90;;;;;;5044732;28;20059;-70
2021/10/09 03:52:52;;;;;;;6.82;2.88;;;13.80;99.90;;;;;;5048440;28;20044;-70
2021/10/09 03:55:56;;;;;;;6.88;3.30;;;13.90;99.90;;;;;;5029770;28;20044;-72
2021/10/09 03:59:04;;;;;;;9.27;3.92;;;13.90;99.90;;;;;;5042976;28;20036;-70
2021/10/09 04:02:08;;;;;;;6.95;3.15;;;13.90;99.90;;;;;;5046270;28;20133;-71
2021/10/09 04:05:12;;;;;;;7.95;3.67;;;13.70;99.90;;;;;;5029431;28;20044;-72
2021/10/09 04:08:17;;;;;;;5.88;3.22;;;13.70;99.90;;;;;;5046371;28;20047;-71
2021/10/09 04:11:23;;;;;;;8.77;3.38;;;13.60;99.90;;;;;;5033095;28;20068;-70
2021/10/09 04:14:27;;;;;;;8.10;3.05;;;13.70;99.90;;;;;;5050846;28;20450;-71
2021/10/09 04:17:31;;;;;;;6.30;3.03;;;13.60;99.90;;;;;;5049484;28;20040;-70
2021/10/09 04:20:38;;;;;;;6.43;2.78;;;13.70;99.90;;;;;;5040044;28;20041;-72
2021/10/09 04:23:42;;;;;;;6.85;2.88;;;13.80;99.90;;;;;;5029486;28;20056;-72
2021/10/09 04:26:46;;;;;;;7.82;2.75;;;13.80;99.90;;;;;;5030695;28;20048;-72
2021/10/09 04:29:50;;;;;;;7.28;2.88;;;13.80;99.90;;;;;;5028511;28;20044;-70
2021/10/09 04:32:54;;;;;;;8.27;2.95;;;13.70;99.90;;;;;;5027891;28;20048;-70
2021/10/09 04:35:58;;;;;;;6.78;3.28;;;13.70;99.90;;;;;;5030956;28;20056;-70
2021/10/09 04:39:04;;;;;;;6.72;2.97;;;13.60;99.90;;;;;;5033373;28;20487;-70
2021/10/09 04:42:10;;;;;;;5.03;3.05;;;13.50;99.90;;;;;;5033690;28;20041;-70
2021/10/09 04:45:17;;;;;;;9.93;3.72;;;13.50;99.90;;;;;;5033516;28;20404;-70
2021/10/09 04:48:26;;;;;;;7.13;2.85;;;13.50;99.90;;;;;;5045170;28;20047;-69
2021/10/09 04:51:32;;;;;;;5.50;2.95;;;13.60;99.90;;;;;;5051856;28;20533;-70
2021/10/09 04:54:39;;;;;;;8.15;3.03;;;13.60;99.90;;;;;;5032465;28;20403;-73
2021/10/09 04:57:43;;;;;;;3.33;2.30;;;13.60;99.90;;;;;;5039342;28;20047;-70
2021/10/09 05:00:51;;;;;;;6.28;2.65;;;13.60;99.90;;;;;;5049568;28;20060;-70
2021/10/09 05:03:56;;;;;;;5.93;2.45;;;13.60;99.90;;;;;;5032341;28;20060;-70
2021/10/09 05:07:01;;;;;;;6.03;2.50;;;13.60;99.90;;;;;;5033596;28;20411;-70
2021/10/09 05:10:08;;;;;;;15.20;6.47;;;13.70;99.90;;;;;;5033185;28;20215;-70
2021/10/09 05:13:15;;;;;;;5.63;2.38;;;13.80;99.90;;;;;;5011074;28;20044;-70
2021/10/09 05:16:19;;;;;;;3.63;2.00;;;13.80;99.90;;;;;;5032518;28;20408;-71
2021/10/09 05:19:25;;;;;;;4.93;2.28;;;13.70;99.90;;;;;;5031350;28;20048;-70
2021/10/09 05:22:30;;;;;;;4.28;2.05;;;13.70;99.90;;;;;;5034836;28;20399;-71
2021/10/09 05:25:36;;;;;;;5.47;2.20;;;13.90;99.90;;;;;;5052745;28;20044;-72
2021/10/09 05:28:43;;;;;;;3.88;1.98;;;14.00;99.90;;;;;;5039412;28;20070;-72
2021/10/09 05:31:52;;;;;;;6.00;2.22;;;13.90;99.90;;;;;;5020290;28;20067;-71
2021/10/09 05:35:02;;;;;;;5.80;2.63;;;13.80;99.90;;;;;;5032289;28;20044;-71
2021/10/09 05:38:08;;;;;;;8.75;2.20;;;13.80;99.90;;;;;;5050747;28;20047;-72
2021/10/09 05:41:13;;;;;;;3.60;2.50;;;13.80;99.90;;;;;;5043234;28;20048;-72
2021/10/09 05:44:22;;;;;;;6.28;2.80;;;13.70;99.90;;;;;;5022007;28;20049;-72
2021/10/09 05:47:30;;;;;;;4.40;2.05;;;13.60;99.90;;;;;;5051434;28;20123;-72
2021/10/09 05:57:37;;;;;;;4.78;2.30;;;13.60;99.90;;;;;;5044013;28;20052;-72
2021/10/09 07:00:57;;;;;;;13.07;3.30;;;15.20;99.90;;;;;;5031713;28;20048;-70
2021/10/09 07:04:01;;;;;;;5.65;3.58;;;15.40;99.90;;;;;;5050543;28;20060;-71
2021/10/09 07:07:08;;;;;;;6.22;4.13;;;15.60;99.90;;;;;;5051811;28;20064;-70
2021/10/09 07:10:25;;;;;;;12.77;3.88;;;15.60;99.90;;;;;;5045182;28;20052;-71
2021/10/09 07:13:29;;;;;;;6.07;3.67;;;15.80;99.90;;;;;;5031930;28;20045;-71
2021/10/09 07:16:33;;;;;;;6.72;3.88;;;16.10;99.90;;;;;;5031424;28;20040;-70
2021/10/09 07:19:37;;;;;;;6.72;3.92;;;16.50;99.90;;;;;;5034268;28;20048;-71
2021/10/09 07:22:42;;;;;;;9.07;3.50;;;18.00;99.90;;;;;;5051405;28;20056;-72
2021/10/09 07:25:46;;;;;;;7.28;2.92;;;19.50;99.90;;;;;;5029955;28;20052;-71
2021/10/09 07:28:52;;;;;;;4.68;2.83;;;21.20;99.60;;;;;;5034090;28;20040;-71
2021/10/09 07:31:56;;;;;;;5.20;2.65;;;21.30;97.30;;;;;;5029888;28;20043;-71
2021/10/09 07:35:00;;;;;;;6.13;2.72;;;21.80;96.30;;;;;;5048736;28;20047;-72
2021/10/09 07:38:04;;;;;;;7.70;3.65;;;22.60;95.10;;;;;;5038241;28;20044;-73
2021/10/09 07:41:08;;;;;;;4.10;2.85;;;24.50;94.20;;;;;;5033691;28;20406;-72
2021/10/09 07:44:13;;;;;;;4.55;2.25;;;26.90;92.00;;;;;;5030488;28;20056;-73
2021/10/09 07:47:21;;;;;;;4.18;2.05;;;28.50;85.20;;;;;;5044650;28;20056;-74
2021/10/09 07:50:25;;;;;;;7.18;2.20;;;29.50;82.80;;;;;;5049056;28;20530;-73
2021/10/09 07:53:30;;;;;;;2.83;2.03;;;24.70;86.40;;;;;;5030640;28;20048;-73
2021/10/09 07:56:35;;;;;;;4.57;2.10;;;26.50;87.70;;;;;;5033039;28;20064;-74
2021/10/09 07:59:40;;;;;;;4.78;1.60;;;28.20;82.30;;;;;;5049489;28;20387;-72
2021/10/09 08:02:50;;;;;;;3.78;1.90;;;29.60;79.80;;;;;;5050848;28;20032;-73
2021/10/09 08:05:55;;;;;;;3.80;1.52;;;30.50;77.70;;;;;;5049663;28;20036;-73
2021/10/09 08:08:59;;;;;;;5.80;2.15;;;30.70;76.20;;;;;;5049827;28;20052;-72
2021/10/09 08:12:04;;;;;;;3.90;1.75;;;31.60;74.70;;;;;;5049978;28;20032;-72
2021/10/09 08:15:09;;;;;;;10.55;4.90;;;32.20;70.80;;;;;;5035958;28;20399;-71
2021/10/09 08:18:14;;;;;;;2.63;1.92;;;29.60;71.30;;;;;;5039179;28;20048;-73
2021/10/09 08:21:23;;;;;;;4.05;1.83;;;28.70;74.40;;;;;;5054508;28;20044;-73
2021/10/09 08:40:52;;;;;;;3.80;2.30;;;29.20;71.80;;;;;;5044550;28;20407;-72
2021/10/09 08:43:57;;;;;;;5.35;2.28;;;28.80;74.70;;;;;;5053011;28;20044;-72
2021/10/09 08:47:01;;;;;;;7.15;2.00;;;29.30;73.20;;;;;;5033467;28;20052;-72
2021/10/09 08:50:08;;;;;;;5.80;1.75;;;28.30;72.20;;;;;;5037575;28;20044;-72
2021/10/09 08:53:12;;;;;;;3.90;1.85;;;28.00;73.60;;;;;;5035967;28;20043;-73
2021/10/09 08:56:38;;;;;;;3.17;2.05;;;29.00;71.70;;;;;;5032951;28;20069;-71
2021/10/09 09:00:07;;;;;;;5.05;2.30;;;25.60;76.30;;;;;;5047007;28;20048;-71
2021/10/09 09:03:16;;;;;;;6.25;2.05;;;24.70;78.70;;;;;;5048325;28;20047;-72
2021/10/09 09:40:44;;;;;;;4.45;2.30;;;24.00;80.60;;;;;;5032180;28;20029;-72
2021/10/09 09:43:53;;;;;;;4.47;2.05;;;23.20;82.50;;;;;;5045445;28;20051;-72
2021/10/09 09:47:09;;;;;;;5.05;2.35;;;26.00;81.30;;;;;;5049246;28;20061;-73
2021/10/09 09:50:14;;;;;;;4.43;1.77;;;28.90;75.70;;;;;;5032176;28;20049;-72
2021/10/09 09:53:21;;;;;;;3.15;1.65;;;29.80;73.30;;;;;;5049346;28;20044;-73
2021/10/09 09:56:26;;;;;;;3.95;1.95;;;29.80;73.10;;;;;;5044522;28;20048;-70
2021/10/09 09:59:32;;;;;;;5.97;1.83;;;29.90;73.00;;;;;;5031783;28;20045;-71
2021/10/09 10:02:57;;;;;;;5.88;1.73;;;29.20;73.20;;;;;;5048052;28;20040;-71
2021/10/09 10:06:05;;;;;;;5.65;1.83;;;27.50;74.60;;;;;;5046622;28;20036;-71
2021/10/09 10:09:09;;;;;;;3.88;1.60;;;27.00;75.30;;;;;;5052120;28;20040;-70
2021/10/09 10:12:14;;;;;;;4.97;1.92;;;26.50;76.20;;;;;;5031880;28;20041;-72
2021/10/09 10:15:18;;;;;;;20.75;2.50;;;26.70;76.20;;;;;;5045801;28;20052;-71
2021/10/09 10:18:51;;;;;;;3.17;1.50;;;26.80;75.20;;;;;;5050328;28;20091;-71
2021/10/09 10:21:55;;;;;;;;;;;25.80;74.20;;;;;;5032998;28;20049;-72
2021/10/09 10:24:59;;;;;;;6.90;2.22;;;24.70;78.30;;;;;;5047779;28;19916;-72
2021/10/09 10:28:19;;;;;;;9.88;2.20;;;24.80;77.80;;;;;;5041356;28;20056;-71
2021/10/09 10:31:24;;;;;;;2.88;2.00;;;24.00;80.40;;;;;;5032553;28;20045;-71
2021/10/09 10:34:28;;;;;;;4.22;1.88;;;26.40;77.00;;;;;;5031466;28;20116;-72
2021/10/09 10:37:34;;;;;;;3.22;1.33;;;27.80;75.50;;;;;;5034068;28;20133;-72
2021/10/09 10:41:38;;;;;;;5.22;1.83;;;27.70;72.40;;;;;;5033031;28;20040;-71
2021/10/09 10:45:11;;;;;;;2.47;1.50;;;27.50;73.10;;;;;;5033302;28;20507;-71
2021/10/09 10:48:47;;;;;;;3.20;1.50;;;28.40;73.40;;;;;;5030507;28;20412;-72
2021/10/09 10:55:05;;;;;;;4.05;1.70;;;28.60;71.70;;;;;;5044848;28;20048;-72
2021/10/09 10:58:20;;;;;;;5.43;1.60;;;27.00;73.30;;;;;;5049118;28;20052;-70
2021/10/09 11:01:28;;;;;;;4.05;1.80;;;26.70;74.60;;;;;;5050435;28;20036;-72
2021/10/09 11:04:37;;;;;;;4.93;1.80;;;27.50;74.00;;;;;;5034983;28;20049;-71
2021/10/09 11:07:43;;;;;;;4.43;2.40;;;26.90;73.20;;;;;;5033834;28;20052;-70
2021/10/09 11:10:47;;;;;;;5.18;1.98;;;26.10;75.00;;;;;;5030877;28;20060;-72
2021/10/09 11:13:51;;;;;;;2.78;1.75;;;26.90;74.20;;;;;;5029266;28;20415;-71
2021/10/09 11:17:04;;;;;;;5.55;1.83;;;25.80;76.20;;;;;;5031186;28;20387;-71
2021/10/09 11:20:11;;;;;;;3.50;1.63;;;27.20;74.10;;;;;;5050634;28;20044;-71
2021/10/09 11:23:16;;;;;;;2.35;1.40;;;28.20;72.70;;;;;;5033108;28;20068;-71
2021/10/09 11:26:22;;;;;;;3.67;1.83;;;29.50;70.80;;;;;;5011617;28;20044;-73
2021/10/09 11:29:26;;;;;;;4.90;2.10;;;28.50;71.40;;;;;;5049796;28;20067;-73
2021/10/09 11:32:32;;;;;;;3.22;1.48;;;27.20;72.70;;;;;;5049135;28;20056;-73
2021/10/09 11:35:39;;;;;;;6.20;2.08;;;25.80;74.10;;;;;;5041323;28;20053;-71
2021/10/09 11:38:43;;;;;;;5.28;1.55;;;26.40;74.10;;;;;;5030596;28;20044;-70
2021/10/09 11:42:13;;;;;;;3.35;1.50;;;25.90;74.10;;;;;;5030156;28;20041;-71
2021/10/09 11:55:29;;;;;;;6.70;2.10;;;28.10;70.10;;;;;;5034308;28;20052;-73
2021/10/09 11:58:47;;;;;;;5.78;1.98;;;28.20;71.30;;;;;;5044340;28;20040;-70
2021/10/09 12:01:52;;;;;;;3.42;1.50;;;28.20;68.70;;;;;;5053122;28;20039;-71
2021/10/09 12:04:58;;;;;;;4.25;1.90;;;28.00;70.90;;;;;;5053961;28;20400;-71
2021/10/09 12:08:28;;;;;;;4.88;2.42;;;28.40;70.50;;;;;;5035569;28;20053;-72
2021/10/09 12:11:32;;;;;;;5.03;1.87;;;27.70;71.00;;;;;;5033757;28;20538;-70
2021/10/09 12:14:36;;;;;;;7.03;2.00;;;29.70;69.90;;;;;;5034409;28;20388;-70
2021/10/09 12:17:40;;;;;;;8.55;2.88;;;27.80;69.80;;;;;;5033934;28;20498;-69
2021/10/09 12:20:44;;;;;;;6.10;2.80;;;24.50;74.40;;;;;;5033539;28;20517;-71
2021/10/09 12:23:49;;;;;;;5.18;2.38;;;23.40;77.70;;;;;;5035447;28;20522;-70
2021/10/09 12:27:05;;;;;;;3.83;2.42;;;23.70;77.20;;;;;;5053709;28;20044;-72
2021/10/09 12:30:12;;;;;;;3.63;2.55;;;24.10;76.60;;;;;;5051970;28;20407;-72
2021/10/09 12:33:38;;;;;;;6.43;2.50;;;24.70;75.70;;;;;;5045799;28;20048;-71
2021/10/09 12:36:42;;;;;;;8.63;2.80;;;26.20;74.40;;;;;;5033826;28;20045;-71
2021/10/09 12:40:04;;;;;;;6.63;3.03;;;27.30;72.90;;;;;;5032504;28;20048;-72
2021/10/09 12:43:13;;;;;;;5.72;2.85;;;25.80;73.70;;;;;;5046239;28;20092;-73
2021/10/09 12:46:17;;;;;;;7.13;2.90;;;24.60;75.80;;;;;;5052350;28;20510;-71
2021/10/09 12:49:21;;;;;;;12.02;3.20;;;24.40;76.40;;;;;;5032761;28;20053;-71
2021/10/09 12:52:25;;;;;;;4.40;2.92;;;25.00;75.00;;;;;;5049140;28;20043;-71
2021/10/09 12:55:34;;;;;;;4.75;3.10;;;23.40;78.20;;;;;;5035409;28;20048;-71
2021/10/09 12:58:38;;;;;;;8.93;3.25;;;22.80;79.90;;;;;;5051539;28;20036;-70
2021/10/09 13:01:42;;;;;;;6.65;2.72;;;23.90;78.40;;;;;;5031449;28;20045;-69
2021/10/09 13:04:46;;;;;;;6.30;2.88;;;24.70;76.60;;;;;;5035864;28;20423;-70
2021/10/09 13:07:51;;;;;;;6.68;2.70;;;24.80;75.00;;;;;;5052354;28;20052;-70
2021/10/09 13:10:58;;;;;;;6.15;3.00;;;24.90;74.80;;;;;;5051676;28;20040;-70
2021/10/09 13:14:03;;;;;;;10.60;3.35;;;24.60;75.60;;;;;;5045100;28;20052;-71
2021/10/09 13:17:07;;;;;;;8.32;2.85;;;23.50;76.30;;;;;;5032536;28;20041;-72
2021/10/09 13:20:11;;;;;;;9.75;3.15;;;23.10;78.10;;;;;;5032002;28;20044;-71
2021/10/09 13:23:15;;;;;;;4.70;2.90;;;23.50;77.20;;;;;;5044572;28;20044;-69
2021/10/09 13:26:19;;;;;;;9.52;3.33;;;22.70;77.60;;;;;;5051239;28;20384;-71
2021/10/09 13:29:23;;;;;;;5.47;2.80;;;22.70;78.60;;;;;;5032017;28;20040;-70
2021/10/09 13:32:27;;;;;;;8.98;2.80;;;23.60;76.10;;;;;;5035982;28;20049;-71
2021/10/09 13:35:32;;;;;;;8.18;3.30;;;25.20;74.10;;;;;;5031946;28;20388;-70
2021/10/09 13:38:39;;;;;;;4.03;2.72;;;24.90;74.60;;;;;;5031732;28;20101;-72
2021/10/09 13:41:43;;;;;;;5.63;3.63;;;24.70;75.20;;;;;;5048716;28;20040;-74
2021/10/09 13:44:47;;;;;;;6.57;2.97;;;24.40;76.20;;;;;;5051026;28;20037;-72
2021/10/09 13:47:51;;;;;;;6.95;2.80;;;24.30;77.00;;;;;;5052206;28;20048;-70
2021/10/09 13:50:55;;;;;;;6.18;3.25;;;24.50;75.80;;;;;;5046993;28;20052;-70
2021/10/09 13:54:02;;;;;;;6.38;3.22;;;23.80;75.90;;;;;;5050334;28;20395;-71
2021/10/09 13:57:07;;;;;;;6.10;3.90;;;22.70;78.10;;;;;;5052315;28;20491;-70
2021/10/09 14:00:12;;;;;;;6.50;3.35;;;20.70;81.10;;;;;;5031005;28;20053;-69
2021/10/09 14:03:16;;;;;;;7.97;3.33;;;20.50;82.10;;;;;;5037239;28;20055;-70
2021/10/09 14:06:21;;;;;;;10.98;3.60;;;21.50;80.80;;;;;;5051600;28;20498;-70
2021/10/09 14:09:25;;;;;;;11.50;3.42;;;21.20;80.50;;;;;;5050196;28;20059;-71
2021/10/09 14:12:28;;;;;;;8.05;3.10;;;19.60;82.80;;;;;;5042433;28;20044;-69
2021/10/09 14:15:33;;;;;;;12.10;3.60;;;19.60;84.00;;;;;;5031531;28;20068;-70
2021/10/09 14:18:37;;;;;;;7.13;3.67;;;20.30;81.50;;;;;;5031416;28;20056;-71
2021/10/09 14:21:43;;;;;;;6.40;4.05;;;19.70;82.10;;;;;;5033716;28;20048;-69
2021/10/09 14:24:47;;;;;;;7.82;3.60;;;18.60;85.00;;;;;;5031466;28;20616;-71
2021/10/09 14:27:51;;;;;;;7.30;3.80;;;18.00;87.30;;;;;;5031866;28;20506;-70
2021/10/09 14:30:55;;;;;;;5.53;3.35;;;17.90;88.30;;;;;;5043328;28;20036;-69
2021/10/09 14:33:59;;;;;;;6.30;4.28;;;17.80;87.60;;;;;;5046293;28;20061;-70
2021/10/09 14:37:04;;;;;;;9.85;4.40;;;17.30;89.70;;;;;;5031451;28;20507;-69
2021/10/09 14:40:08;;;;;;;10.55;4.13;;;17.10;90.10;;;;;;5030584;28;20049;-69
2021/10/09 14:43:12;;;;;;;9.13;3.95;;;17.10;90.10;;;;;;5036918;28;20519;-70
2021/10/09 14:49:45;;;;;;;8.23;3.97;;;16.90;90.50;;;;;;5029947;28;20045;-70
2021/10/09 15:19:10;;;;;;;5.28;3.83;;;15.70;91.60;;;;;;5044679;28;20303;-70
2021/10/09 15:22:14;;;;;;;12.52;4.68;;;15.90;91.60;;;;;;5029678;28;20037;-70
2021/10/09 15:25:18;;;;;;;6.45;4.00;;;15.90;91.70;;;;;;5030876;28;20447;-70
2021/10/09 15:28:23;;;;;;;10.48;4.47;;;15.90;91.40;;;;;;5035013;28;20048;-70
2021/10/09 15:31:27;;;;;;;11.35;4.60;;;15.80;91.50;;;;;;5050390;28;20044;-69
2021/10/09 15:34:38;;;;;;;6.38;3.90;;;15.80;91.20;;;;;;5030671;28;20052;-70
2021/10/09 15:37:42;;;;;;;8.07;4.57;;;15.80;91.30;;;;;;5030790;28;20052;-69
2021/10/09 15:40:46;;;;;;;6.53;3.65;;;15.90;91.40;;;;;;5030426;28;20037;-71
2021/10/09 15:43:51;;;;;;;7.60;4.07;;;16.20;91.00;;;;;;5030397;28;20057;-69
2021/10/09 15:46:55;;;;;;;9.15;3.22;;;16.50;90.30;;;;;;5040002;28;20404;-72
2021/10/09 15:50:00;;;;;;;5.20;3.47;;;16.70;90.20;;;;;;5048869;28;20044;-71
2021/10/09 15:53:04;;;;;;;5.55;3.17;;;16.80;90.00;;;;;;5049852;28;20044;-72
2021/10/09 15:56:08;;;;;;;5.18;3.50;;;16.80;90.10;;;;;;5036718;28;20052;-72
2021/10/09 15:59:11;;;;;;;6.72;3.22;;;16.90;89.90;;;;;;5033829;28;20044;-73
2021/10/09 16:02:17;;;;;;;8.18;3.53;;;16.60;90.10;;;;;;5049623;28;20039;-72
2021/10/09 16:05:21;;;;;;;8.57;3.20;;;16.50;90.20;;;;;;5030791;28;20064;-71
2021/10/09 16:08:25;;;;;;;6.88;3.45;;;16.40;90.40;;;;;;5028808;28;20044;-71
2021/10/09 16:11:31;;;;;;;11.65;4.38;;;16.20;90.60;;;;;;5030367;28;20613;-71
2021/10/09 16:14:35;;;;;;;5.30;3.63;;;16.10;90.60;;;;;;5047035;28;20403;-71
2021/10/09 16:17:39;;;;;;;8.70;3.65;;;16.00;91.20;;;;;;5043393;28;20034;-72
2021/10/09 16:20:44;;;;;;;9.57;3.80;;;15.80;91.70;;;;;;5029843;28;20040;-73
2021/10/09 16:23:48;;;;;;;7.18;3.33;;;15.60;91.40;;;;;;5049082;28;20048;-71
2021/10/09 16:26:53;;;;;;;9.35;4.00;;;15.50;91.60;;;;;;5041272;28;20049;-70
2021/10/09 16:29:57;;;;;;;8.45;4.70;;;15.30;91.90;;;;;;5029804;28;20056;-72
2021/10/09 16:33:01;;;;;;;10.95;4.00;;;15.20;92.40;;;;;;5030348;28;20045;-71
2021/10/09 16:36:06;;;;;;;5.78;3.28;;;15.00;92.40;;;;;;5036595;28;20060;-70
2021/10/09 16:39:10;;;;;;;7.32;3.20;;;14.80;92.70;;;;;;5035409;28;20051;-70
2021/10/09 16:42:14;;;;;;;8.38;4.55;;;14.60;91.90;;;;;;5044424;28;20040;-69
2021/10/09 16:45:18;;;;;;;5.85;3.75;;;14.50;92.70;;;;;;5036075;28;20543;-71
2021/10/09 16:48:22;;;;;;;6.03;3.30;;;14.40;92.80;;;;;;5032626;28;20067;-71
2021/10/09 16:51:27;;;;;;;8.27;4.05;;;14.30;92.70;;;;;;5053220;28;20494;-72
2021/10/09 16:54:31;;;;;;;6.50;3.45;;;14.20;93.30;;;;;;5038586;28;20048;-70
2021/10/09 16:57:37;;;;;;;7.47;3.75;;;14.10;93.00;;;;;;5036031;28;20051;-69
2021/10/09 17:00:41;;;;;;;6.68;3.58;;;14.00;93.90;;;;;;5033045;28;20044;-70
2021/10/09 17:03:45;;;;;;;9.55;3.92;;;13.90;94.30;;;;;;5033117;28;20413;-71
2021/10/09 17:06:49;;;;;;;8.18;4.43;;;13.70;94.60;;;;;;5040292;28;20490;-71
2021/10/09 17:09:55;;;;;;;8.90;3.70;;;13.70;94.80;;;;;;5053183;28;20036;-70
2021/10/09 17:12:59;;;;;;;8.65;3.40;;;13.70;94.30;;;;;;5052892;28;20044;-70
2021/10/09 17:16:05;;;;;;;5.43;3.63;;;13.70;94.00;;;;;;5052018;28;20040;-69
2021/10/09 17:19:09;;;;;;;10.27;3.85;;;13.60;95.10;;;;;;5052602;28;20506;-69
2021/10/09 17:22:15;;;;;;;10.43;4.20;;;13.50;94.70;;;;;;5032535;28;20049;-72
2021/10/09 17:25:19;;;;;;;7.97;3.88;;;13.50;95.00;;;;;;5036712;28;20238;-73
2021/10/09 17:28:23;;;;;;;6.18;3.55;;;13.60;94.70;;;;;;5034997;28;20049;-70
2021/10/09 17:31:27;;;;;;;10.60;3.35;;;13.50;94.70;;;;;;5033215;28;20044;-69
2021/10/09 17:34:32;;;;;;;11.05;4.15;;;13.50;94.80;;;;;;5046921;28;20143;-70
2021/10/09 17:37:37;;;;;;;11.23;4.00;;;13.50;95.10;;;;;;5047499;28;20048;-72
2021/10/09 17:40:41;;;;;;;7.68;3.60;;;13.40;95.60;;;;;;5032118;28;20044;-73
2021/10/09 17:43:45;;;;;;;7.60;4.20;;;13.30;96.00;;;;;;5049940;28;20032;-69
2021/10/09 17:46:49;;;;;;;7.47;4.00;;;13.20;96.10;;;;;;5044664;28;20052;-72
2021/10/09 17:49:54;;;;;;;10.45;5.20;;;13.20;96.30;;;;;;5032344;28;20376;-71
2021/10/09 17:53:00;;;;;;;7.65;4.45;;;13.10;96.60;;;;;;5033251;28;20561;-71
2021/10/09 17:56:04;;;;;;;7.30;4.05;;;13.10;97.00;;;;;;5035488;28;20043;-72
2021/10/09 17:59:08;;;;;;;8.05;3.70;;;13.00;97.20;;;;;;5051680;28;20052;-72
2021/10/09 18:02:12;;;;;;;12.88;6.43;;;13.00;97.50;;;;;;5032808;28;20036;-69
2021/10/09 18:05:18;;;;;;;9.10;4.68;;;13.00;97.40;;;;;;5032160;28;20048;-69
2021/10/09 18:08:22;;;;;;;16.90;4.10;;;13.10;97.20;;;;;;5031798;28;20411;-69
2021/10/09 18:11:26;;;;;;;6.97;3.55;;;13.20;97.70;;;;;;5031580;28;20496;-73
2021/10/09 18:14:32;;;;;;;7.53;2.55;;;13.30;97.30;;;;;;5039611;28;20059;-71
2021/10/09 18:17:36;;;;;;;5.93;2.78;;;13.40;96.90;;;;;;5051562;28;20044;-71
2021/10/09 18:20:41;;;;;;;7.30;2.83;;;13.40;97.20;;;;;;5032091;28;20048;-69
2021/10/09 18:23:45;;;;;;;5.57;2.30;;;13.30;97.20;;;;;;5035934;28;20041;-71
2021/10/09 18:26:49;;;;;;;8.20;3.50;;;13.30;97.40;;;;;;5031586;28;20036;-70
2021/10/09 18:29:54;;;;;;;7.97;2.92;;;13.20;97.80;;;;;;5031184;28;20048;-70
2021/10/09 18:32:58;;;;;;;4.43;2.45;;;13.20;97.70;;;;;;5034593;28;20048;-72
2021/10/09 18:36:02;;;;;;;2.58;1.98;;;13.20;97.70;;;;;;5034821;28;20403;-72
2021/10/09 18:39:06;;;;;;;4.18;1.92;;;13.20;97.60;;;;;;5030591;28;20044;-71
2021/10/09 18:42:11;;;;;;;4.22;2.08;;;13.20;97.60;;;;;;5030522;28;20052;-73
2021/10/09 18:45:15;;;;;;;5.50;2.35;;;13.20;97.70;;;;;;5037667;28;20036;-72
2021/10/09 18:48:19;;;;;;;4.53;2.00;;;13.20;97.50;;;;;;5051251;28;20051;-73
2021/10/09 18:51:23;;;;;;;3.10;1.85;;;13.30;97.70;;;;;;5030602;28;20507;-73
2021/10/09 18:54:28;;;;;;;2.35;1.70;;;13.30;97.60;;;;;;5031386;28;20049;-69
2021/10/09 18:57:32;;;;;;;3.53;2.00;;;13.30;97.70;;;;;;5031113;28;20388;-69